sensor_id;sensor_type;location;lat;lon;timestamp;P1;durP1;ratioP1;P2;durP2;ratioP2
59207;SDS011;44977;53.132;6.408;2023-06-10T00:00:38;10.73;;;5.60;;
59207;SDS011;44977;53.132;6.408;2023-06-10T00:05:41;9.73;;;5.63;;
59207;SDS011;44977;53.132;6.408;2023-06-10T00:10:42;10.18;;;5.85;;
59207;SDS011;44977;53.132;6.408;2023-06-10T00:15:42;8.73;;;5.60;;
59207;SDS011;44977;53.132;6.408;2023-06-10T00:20:43;11.93;;;6.63;;
59207;SDS011;44977;53.132;6.408;2023-06-10T00:25:44;10.80;;;5.70;;
59207;SDS011;44977;53.132;6.408;2023-06-10T00:30:45;10.73;;;5.90;;
59207;SDS011;44977;53.132;6.408;2023-06-10T00:35:45;13.10;;;5.63;;
59207;SDS011;44977;53.132;6.408;2023-06-10T00:40:46;9.70;;;5.78;;
59207;SDS011;44977;53.132;6.408;2023-06-10T00:45:47;10.77;;;6.25;;
59207;SDS011;44977;53.132;6.408;2023-06-10T00:50:47;11.23;;;6.60;;
59207;SDS011;44977;53.132;6.408;2023-06-10T00:55:49;12.48;;;6.13;;
59207;SDS011;44977;53.132;6.408;2023-06-10T01:00:49;10.05;;;6.40;;
59207;SDS011;44977;53.132;6.408;2023-06-10T01:05:53;11.60;;;6.28;;
59207;SDS011;44977;53.132;6.408;2023-06-10T01:11:13;10.70;;;6.28;;
59207;SDS011;44977;53.132;6.408;2023-06-10T01:16:21;10.18;;;6.47;;
59207;SDS011;44977;53.132;6.408;2023-06-10T01:21:22;8.73;;;5.63;;
59207;SDS011;44977;53.132;6.408;2023-06-10T01:26:33;10.75;;;6.80;;
59207;SDS011;44977;53.132;6.408;2023-06-10T01:31:46;10.82;;;6.30;;
59207;SDS011;44977;53.132;6.408;2023-06-10T01:41:54;12.70;;;6.70;;
59207;SDS011;44977;53.132;6.408;2023-06-10T01:46:55;12.07;;;7.03;;
59207;SDS011;44977;53.132;6.408;2023-06-10T01:51:56;13.80;;;7.18;;
59207;SDS011;44977;53.132;6.408;2023-06-10T01:56:57;10.35;;;6.97;;
59207;SDS011;44977;53.132;6.408;2023-06-10T02:01:57;10.00;;;6.70;;
59207;SDS011;44977;53.132;6.408;2023-06-10T02:06:58;12.35;;;7.93;;
59207;SDS011;44977;53.132;6.408;2023-06-10T02:11:59;10.68;;;8.32;;
59207;SDS011;44977;53.132;6.408;2023-06-10T02:17:00;11.07;;;8.38;;
59207;SDS011;44977;53.132;6.408;2023-06-10T02:22:01;13.20;;;9.30;;
59207;SDS011;44977;53.132;6.408;2023-06-10T02:27:02;12.90;;;9.23;;
59207;SDS011;44977;53.132;6.408;2023-06-10T02:32:03;14.05;;;9.32;;
59207;SDS011;44977;53.132;6.408;2023-06-10T02:37:04;12.07;;;9.45;;
59207;SDS011;44977;53.132;6.408;2023-06-10T02:42:05;12.25;;;8.60;;
59207;SDS011;44977;53.132;6.408;2023-06-10T02:47:06;11.52;;;8.80;;
59207;SDS011;44977;53.132;6.408;2023-06-10T02:52:07;11.98;;;8.45;;
59207;SDS011;44977;53.132;6.408;2023-06-10T02:57:08;11.40;;;7.72;;
59207;SDS011;44977;53.132;6.408;2023-06-10T03:02:10;12.10;;;7.53;;
59207;SDS011;44977;53.132;6.408;2023-06-10T03:07:11;11.18;;;5.97;;
59207;SDS011;44977;53.132;6.408;2023-06-10T03:12:12;10.55;;;6.30;;
59207;SDS011;44977;53.132;6.408;2023-06-10T03:17:13;10.93;;;6.53;;
59207;SDS011;44977;53.132;6.408;2023-06-10T03:22:14;11.43;;;5.95;;
59207;SDS011;44977;53.132;6.408;2023-06-10T03:27:16;10.38;;;5.53;;
59207;SDS011;44977;53.132;6.408;2023-06-10T03:32:17;10.45;;;5.53;;
59207;SDS011;44977;53.132;6.408;2023-06-10T03:37:18;10.27;;;6.30;;
59207;SDS011;44977;53.132;6.408;2023-06-10T03:42:19;12.60;;;6.68;;
59207;SDS011;44977;53.132;6.408;2023-06-10T03:47:19;10.90;;;6.10;;
59207;SDS011;44977;53.132;6.408;2023-06-10T03:52:21;11.30;;;6.35;;
59207;SDS011;44977;53.132;6.408;2023-06-10T03:57:21;11.23;;;7.18;;
59207;SDS011;44977;53.132;6.408;2023-06-10T04:02:22;13.63;;;7.30;;
59207;SDS011;44977;53.132;6.408;2023-06-10T04:07:23;13.15;;;8.48;;
59207;SDS011;44977;53.132;6.408;2023-06-10T04:12:24;14.13;;;8.70;;
59207;SDS011;44977;53.132;6.408;2023-06-10T04:17:25;12.50;;;9.88;;
59207;SDS011;44977;53.132;6.408;2023-06-10T04:22:26;13.35;;;10.23;;
59207;SDS011;44977;53.132;6.408;2023-06-10T04:27:27;14.32;;;10.25;;
59207;SDS011;44977;53.132;6.408;2023-06-10T04:32:27;13.55;;;9.82;;
59207;SDS011;44977;53.132;6.408;2023-06-10T04:37:28;13.52;;;8.50;;
59207;SDS011;44977;53.132;6.408;2023-06-10T04:42:29;14.40;;;8.20;;
59207;SDS011;44977;53.132;6.408;2023-06-10T04:47:30;12.85;;;7.68;;
59207;SDS011;44977;53.132;6.408;2023-06-10T04:52:33;12.38;;;7.50;;
59207;SDS011;44977;53.132;6.408;2023-06-10T04:57:34;12.45;;;7.00;;
59207;SDS011;44977;53.132;6.408;2023-06-10T05:02:34;13.27;;;7.18;;
59207;SDS011;44977;53.132;6.408;2023-06-10T05:07:35;13.45;;;6.80;;
59207;SDS011;44977;53.132;6.408;2023-06-10T05:12:36;10.57;;;6.05;;
59207;SDS011;44977;53.132;6.408;2023-06-10T05:17:38;13.63;;;6.70;;
59207;SDS011;44977;53.132;6.408;2023-06-10T05:22:39;13.40;;;6.75;;
59207;SDS011;44977;53.132;6.408;2023-06-10T05:27:39;11.75;;;6.55;;
59207;SDS011;44977;53.132;6.408;2023-06-10T05:32:42;14.23;;;7.10;;
59207;SDS011;44977;53.132;6.408;2023-06-10T05:37:42;12.73;;;6.68;;
59207;SDS011;44977;53.132;6.408;2023-06-10T05:42:44;12.48;;;6.70;;
59207;SDS011;44977;53.132;6.408;2023-06-10T05:47:45;10.93;;;6.28;;
59207;SDS011;44977;53.132;6.408;2023-06-10T05:52:45;11.38;;;6.45;;
59207;SDS011;44977;53.132;6.408;2023-06-10T05:57:46;12.25;;;6.30;;
59207;SDS011;44977;53.132;6.408;2023-06-10T06:02:47;13.18;;;6.45;;
59207;SDS011;44977;53.132;6.408;2023-06-10T06:07:48;11.63;;;6.43;;
59207;SDS011;44977;53.132;6.408;2023-06-10T06:12:48;11.95;;;6.72;;
59207;SDS011;44977;53.132;6.408;2023-06-10T06:17:49;12.15;;;6.70;;
59207;SDS011;44977;53.132;6.408;2023-06-10T06:22:52;13.18;;;6.22;;
59207;SDS011;44977;53.132;6.408;2023-06-10T06:27:53;12.80;;;6.53;;
59207;SDS011;44977;53.132;6.408;2023-06-10T06:32:54;13.52;;;5.80;;
59207;SDS011;44977;53.132;6.408;2023-06-10T06:37:55;10.88;;;6.68;;
59207;SDS011;44977;53.132;6.408;2023-06-10T06:42:56;12.95;;;6.20;;
59207;SDS011;44977;53.132;6.408;2023-06-10T06:47:57;11.13;;;6.40;;
59207;SDS011;44977;53.132;6.408;2023-06-10T06:52:58;12.27;;;6.97;;
59207;SDS011;44977;53.132;6.408;2023-06-10T06:57:59;12.70;;;6.65;;
59207;SDS011;44977;53.132;6.408;2023-06-10T07:03:02;11.90;;;7.35;;
59207;SDS011;44977;53.132;6.408;2023-06-10T07:08:03;11.15;;;6.22;;
59207;SDS011;44977;53.132;6.408;2023-06-10T07:13:04;12.40;;;6.60;;
59207;SDS011;44977;53.132;6.408;2023-06-10T07:18:05;9.57;;;5.43;;
59207;SDS011;44977;53.132;6.408;2023-06-10T07:23:05;11.48;;;6.20;;
59207;SDS011;44977;53.132;6.408;2023-06-10T07:28:06;11.10;;;5.40;;
59207;SDS011;44977;53.132;6.408;2023-06-10T07:33:07;9.30;;;4.97;;
59207;SDS011;44977;53.132;6.408;2023-06-10T07:38:07;10.55;;;5.38;;
59207;SDS011;44977;53.132;6.408;2023-06-10T07:43:08;10.43;;;5.43;;
59207;SDS011;44977;53.132;6.408;2023-06-10T07:48:09;8.85;;;5.30;;
59207;SDS011;44977;53.132;6.408;2023-06-10T07:53:10;9.60;;;5.32;;
59207;SDS011;44977;53.132;6.408;2023-06-10T07:58:11;9.63;;;5.05;;
59207;SDS011;44977;53.132;6.408;2023-06-10T08:03:11;9.52;;;5.53;;
59207;SDS011;44977;53.132;6.408;2023-06-10T08:08:12;9.20;;;5.45;;
59207;SDS011;44977;53.132;6.408;2023-06-10T08:13:13;10.30;;;5.13;;
59207;SDS011;44977;53.132;6.408;2023-06-10T08:18:14;11.10;;;5.03;;
59207;SDS011;44977;53.132;6.408;2023-06-10T08:23:14;10.93;;;5.43;;
59207;SDS011;44977;53.132;6.408;2023-06-10T08:28:15;9.30;;;4.95;;
59207;SDS011;44977;53.132;6.408;2023-06-10T08:33:16;9.82;;;5.57;;
59207;SDS011;44977;53.132;6.408;2023-06-10T08:38:16;11.40;;;4.88;;
59207;SDS011;44977;53.132;6.408;2023-06-10T08:43:22;9.98;;;5.00;;
59207;SDS011;44977;53.132;6.408;2023-06-10T08:48:44;9.27;;;5.30;;
59207;SDS011;44977;53.132;6.408;2023-06-10T08:53:50;9.25;;;5.30;;
59207;SDS011;44977;53.132;6.408;2023-06-10T08:58:58;8.90;;;4.40;;
59207;SDS011;44977;53.132;6.408;2023-06-10T09:04:00;8.60;;;4.80;;
59207;SDS011;44977;53.132;6.408;2023-06-10T09:09:02;8.65;;;4.47;;
59207;SDS011;44977;53.132;6.408;2023-06-10T09:14:04;11.23;;;4.30;;
59207;SDS011;44977;53.132;6.408;2023-06-10T09:19:05;8.68;;;4.60;;
59207;SDS011;44977;53.132;6.408;2023-06-10T09:24:09;9.73;;;4.40;;
59207;SDS011;44977;53.132;6.408;2023-06-10T09:29:10;9.48;;;4.10;;
59207;SDS011;44977;53.132;6.408;2023-06-10T09:34:12;8.85;;;4.28;;
59207;SDS011;44977;53.132;6.408;2023-06-10T09:39:15;9.57;;;4.40;;
59207;SDS011;44977;53.132;6.408;2023-06-10T09:44:18;9.45;;;4.45;;
59207;SDS011;44977;53.132;6.408;2023-06-10T09:49:20;9.80;;;4.20;;
59207;SDS011;44977;53.132;6.408;2023-06-10T09:54:21;10.73;;;4.30;;
59207;SDS011;44977;53.132;6.408;2023-06-10T09:59:29;8.27;;;3.80;;
59207;SDS011;44977;53.132;6.408;2023-06-10T10:04:32;8.25;;;4.15;;
59207;SDS011;44977;53.132;6.408;2023-06-10T10:09:39;9.70;;;4.40;;
59207;SDS011;44977;53.132;6.408;2023-06-10T10:14:43;8.60;;;4.17;;
59207;SDS011;44977;53.132;6.408;2023-06-10T10:19:48;11.13;;;4.10;;
59207;SDS011;44977;53.132;6.408;2023-06-10T10:25:02;10.60;;;4.15;;
59207;SDS011;44977;53.132;6.408;2023-06-10T10:30:08;7.68;;;3.80;;
59207;SDS011;44977;53.132;6.408;2023-06-10T10:35:16;8.75;;;3.80;;
59207;SDS011;44977;53.132;6.408;2023-06-10T10:40:19;8.88;;;4.07;;
59207;SDS011;44977;53.132;6.408;2023-06-10T10:45:21;8.82;;;4.00;;
59207;SDS011;44977;53.132;6.408;2023-06-10T10:50:22;9.25;;;3.88;;
59207;SDS011;44977;53.132;6.408;2023-06-10T10:55:24;7.93;;;3.17;;
59207;SDS011;44977;53.132;6.408;2023-06-10T11:00:33;9.05;;;3.95;;
59207;SDS011;44977;53.132;6.408;2023-06-10T11:05:39;8.35;;;3.30;;
59207;SDS011;44977;53.132;6.408;2023-06-10T11:10:51;7.22;;;3.53;;
59207;SDS011;44977;53.132;6.408;2023-06-10T11:15:58;7.50;;;3.40;;
59207;SDS011;44977;53.132;6.408;2023-06-10T11:26:20;6.40;;;3.30;;
59207;SDS011;44977;53.132;6.408;2023-06-10T11:31:41;8.23;;;3.05;;
59207;SDS011;44977;53.132;6.408;2023-06-10T11:36:43;7.60;;;3.25;;
59207;SDS011;44977;53.132;6.408;2023-06-10T11:41:45;7.00;;;3.40;;
59207;SDS011;44977;53.132;6.408;2023-06-10T11:46:49;9.40;;;3.45;;
59207;SDS011;44977;53.132;6.408;2023-06-10T11:51:50;7.03;;;3.15;;
59207;SDS011;44977;53.132;6.408;2023-06-10T11:56:56;7.88;;;3.05;;
59207;SDS011;44977;53.132;6.408;2023-06-10T12:01:59;7.35;;;3.60;;
59207;SDS011;44977;53.132;6.408;2023-06-10T12:07:00;8.73;;;3.70;;
59207;SDS011;44977;53.132;6.408;2023-06-10T12:12:02;7.72;;;3.70;;
59207;SDS011;44977;53.132;6.408;2023-06-10T12:17:05;7.00;;;3.55;;
59207;SDS011;44977;53.132;6.408;2023-06-10T12:22:05;6.85;;;3.40;;
59207;SDS011;44977;53.132;6.408;2023-06-10T12:27:06;6.80;;;3.10;;
59207;SDS011;44977;53.132;6.408;2023-06-10T12:32:12;7.43;;;3.75;;
59207;SDS011;44977;53.132;6.408;2023-06-10T12:37:15;9.32;;;3.67;;
59207;SDS011;44977;53.132;6.408;2023-06-10T12:42:16;7.90;;;3.60;;
59207;SDS011;44977;53.132;6.408;2023-06-10T12:47:17;7.03;;;3.17;;
59207;SDS011;44977;53.132;6.408;2023-06-10T12:52:18;8.55;;;3.80;;
59207;SDS011;44977;53.132;6.408;2023-06-10T12:57:18;7.18;;;3.50;;
59207;SDS011;44977;53.132;6.408;2023-06-10T13:02:19;9.15;;;3.30;;
59207;SDS011;44977;53.132;6.408;2023-06-10T13:07:20;9.02;;;3.60;;
59207;SDS011;44977;53.132;6.408;2023-06-10T13:12:22;7.60;;;3.42;;
59207;SDS011;44977;53.132;6.408;2023-06-10T13:17:25;7.93;;;3.80;;
59207;SDS011;44977;53.132;6.408;2023-06-10T13:22:28;9.43;;;4.32;;
59207;SDS011;44977;53.132;6.408;2023-06-10T13:27:30;8.27;;;3.70;;
59207;SDS011;44977;53.132;6.408;2023-06-10T13:32:31;8.48;;;4.38;;
59207;SDS011;44977;53.132;6.408;2023-06-10T13:37:31;8.23;;;4.20;;
59207;SDS011;44977;53.132;6.408;2023-06-10T13:42:33;8.15;;;4.28;;
59207;SDS011;44977;53.132;6.408;2023-06-10T13:47:35;8.52;;;3.97;;
59207;SDS011;44977;53.132;6.408;2023-06-10T13:52:36;7.28;;;4.10;;
59207;SDS011;44977;53.132;6.408;2023-06-10T13:57:37;7.85;;;3.78;;
59207;SDS011;44977;53.132;6.408;2023-06-10T14:02:37;7.60;;;4.00;;
59207;SDS011;44977;53.132;6.408;2023-06-10T14:07:38;7.88;;;3.35;;
59207;SDS011;44977;53.132;6.408;2023-06-10T14:12:40;8.50;;;3.00;;
59207;SDS011;44977;53.132;6.408;2023-06-10T14:17:42;6.93;;;2.85;;
59207;SDS011;44977;53.132;6.408;2023-06-10T14:22:43;9.70;;;3.38;;
59207;SDS011;44977;53.132;6.408;2023-06-10T14:27:44;7.60;;;3.30;;
59207;SDS011;44977;53.132;6.408;2023-06-10T14:32:47;6.15;;;3.00;;
59207;SDS011;44977;53.132;6.408;2023-06-10T14:37:47;8.10;;;3.25;;
59207;SDS011;44977;53.132;6.408;2023-06-10T14:42:48;8.27;;;3.10;;
59207;SDS011;44977;53.132;6.408;2023-06-10T14:47:49;6.57;;;3.40;;
59207;SDS011;44977;53.132;6.408;2023-06-10T14:52:49;6.32;;;3.15;;
59207;SDS011;44977;53.132;6.408;2023-06-10T14:57:50;7.68;;;3.42;;
59207;SDS011;44977;53.132;6.408;2023-06-10T15:02:51;8.23;;;3.55;;
59207;SDS011;44977;53.132;6.408;2023-06-10T15:07:52;7.88;;;3.70;;
59207;SDS011;44977;53.132;6.408;2023-06-10T15:12:52;6.40;;;3.38;;
59207;SDS011;44977;53.132;6.408;2023-06-10T15:17:55;6.65;;;3.20;;
59207;SDS011;44977;53.132;6.408;2023-06-10T15:22:56;7.72;;;3.53;;
59207;SDS011;44977;53.132;6.408;2023-06-10T15:27:56;6.00;;;3.28;;
59207;SDS011;44977;53.132;6.408;2023-06-10T15:32:57;6.97;;;3.22;;
59207;SDS011;44977;53.132;6.408;2023-06-10T15:37:58;6.75;;;3.38;;
59207;SDS011;44977;53.132;6.408;2023-06-10T15:42:59;6.93;;;3.17;;
59207;SDS011;44977;53.132;6.408;2023-06-10T15:48:00;7.95;;;3.58;;
59207;SDS011;44977;53.132;6.408;2023-06-10T15:53:01;10.02;;;3.22;;
59207;SDS011;44977;53.132;6.408;2023-06-10T15:58:01;6.35;;;3.47;;
59207;SDS011;44977;53.132;6.408;2023-06-10T16:03:04;8.60;;;4.05;;
59207;SDS011;44977;53.132;6.408;2023-06-10T16:08:04;7.82;;;5.10;;
59207;SDS011;44977;53.132;6.408;2023-06-10T16:13:05;8.10;;;3.30;;
59207;SDS011;44977;53.132;6.408;2023-06-10T16:18:06;6.10;;;3.03;;
59207;SDS011;44977;53.132;6.408;2023-06-10T16:23:07;7.82;;;3.38;;
59207;SDS011;44977;53.132;6.408;2023-06-10T16:28:08;7.95;;;2.78;;
59207;SDS011;44977;53.132;6.408;2023-06-10T16:33:08;6.63;;;3.20;;
59207;SDS011;44977;53.132;6.408;2023-06-10T16:38:09;6.47;;;3.22;;
59207;SDS011;44977;53.132;6.408;2023-06-10T16:43:10;6.95;;;3.08;;
59207;SDS011;44977;53.132;6.408;2023-06-10T16:48:10;7.53;;;3.00;;
59207;SDS011;44977;53.132;6.408;2023-06-10T16:53:13;7.78;;;2.72;;
59207;SDS011;44977;53.132;6.408;2023-06-10T16:58:13;7.40;;;3.13;;
59207;SDS011;44977;53.132;6.408;2023-06-10T17:03:14;7.53;;;3.33;;
59207;SDS011;44977;53.132;6.408;2023-06-10T17:08:15;8.10;;;2.85;;
59207;SDS011;44977;53.132;6.408;2023-06-10T17:13:16;7.85;;;3.28;;
59207;SDS011;44977;53.132;6.408;2023-06-10T17:18:16;6.55;;;3.00;;
59207;SDS011;44977;53.132;6.408;2023-06-10T17:23:17;6.78;;;2.83;;
59207;SDS011;44977;53.132;6.408;2023-06-10T17:28:18;8.00;;;3.28;;
59207;SDS011;44977;53.132;6.408;2023-06-10T17:33:18;6.75;;;3.13;;
59207;SDS011;44977;53.132;6.408;2023-06-10T17:38:19;9.85;;;3.65;;
59207;SDS011;44977;53.132;6.408;2023-06-10T17:43:22;9.90;;;4.32;;
59207;SDS011;44977;53.132;6.408;2023-06-10T17:48:23;9.70;;;3.85;;
59207;SDS011;44977;53.132;6.408;2023-06-10T17:53:24;12.15;;;4.30;;
59207;SDS011;44977;53.132;6.408;2023-06-10T17:58:25;10.18;;;3.97;;
59207;SDS011;44977;53.132;6.408;2023-06-10T18:03:25;11.02;;;4.40;;
59207;SDS011;44977;53.132;6.408;2023-06-10T18:08:26;9.38;;;3.58;;
59207;SDS011;44977;53.132;6.408;2023-06-10T18:13:28;10.45;;;4.03;;
59207;SDS011;44977;53.132;6.408;2023-06-10T18:18:29;10.65;;;3.90;;
59207;SDS011;44977;53.132;6.408;2023-06-10T18:23:29;9.55;;;4.07;;
59207;SDS011;44977;53.132;6.408;2023-06-10T18:28:30;9.20;;;4.07;;
59207;SDS011;44977;53.132;6.408;2023-06-10T18:33:31;12.13;;;3.63;;
59207;SDS011;44977;53.132;6.408;2023-06-10T18:38:33;11.80;;;4.13;;
59207;SDS011;44977;53.132;6.408;2023-06-10T18:43:33;10.27;;;3.80;;
59207;SDS011;44977;53.132;6.408;2023-06-10T18:48:34;12.00;;;4.25;;
59207;SDS011;44977;53.132;6.408;2023-06-10T18:53:35;10.10;;;3.97;;
59207;SDS011;44977;53.132;6.408;2023-06-10T18:58:35;10.93;;;4.25;;
59207;SDS011;44977;53.132;6.408;2023-06-10T19:03:36;10.60;;;4.05;;
59207;SDS011;44977;53.132;6.408;2023-06-10T19:08:37;9.07;;;4.05;;
59207;SDS011;44977;53.132;6.408;2023-06-10T19:13:38;10.75;;;3.88;;
59207;SDS011;44977;53.132;6.408;2023-06-10T19:18:39;13.00;;;4.22;;
59207;SDS011;44977;53.132;6.408;2023-06-10T19:23:40;10.35;;;3.85;;
59207;SDS011;44977;53.132;6.408;2023-06-10T19:28:41;9.68;;;4.00;;
59207;SDS011;44977;53.132;6.408;2023-06-10T19:33:43;14.30;;;4.20;;
59207;SDS011;44977;53.132;6.408;2023-06-10T19:38:43;10.13;;;4.00;;
59207;SDS011;44977;53.132;6.408;2023-06-10T19:43:44;10.20;;;3.88;;
59207;SDS011;44977;53.132;6.408;2023-06-10T19:48:45;10.35;;;4.40;;
59207;SDS011;44977;53.132;6.408;2023-06-10T19:53:47;11.00;;;4.32;;
59207;SDS011;44977;53.132;6.408;2023-06-10T19:58:48;10.65;;;4.63;;
59207;SDS011;44977;53.132;6.408;2023-06-10T20:03:49;12.00;;;4.72;;
59207;SDS011;44977;53.132;6.408;2023-06-10T20:08:50;12.90;;;4.65;;
59207;SDS011;44977;53.132;6.408;2023-06-10T20:13:51;11.73;;;4.80;;
59207;SDS011;44977;53.132;6.408;2023-06-10T20:18:52;12.50;;;4.82;;
59207;SDS011;44977;53.132;6.408;2023-06-10T20:23:53;11.48;;;4.60;;
59207;SDS011;44977;53.132;6.408;2023-06-10T20:28:53;10.38;;;4.72;;
59207;SDS011;44977;53.132;6.408;2023-06-10T20:33:54;11.85;;;4.88;;
59207;SDS011;44977;53.132;6.408;2023-06-10T20:38:55;10.80;;;4.65;;
59207;SDS011;44977;53.132;6.408;2023-06-10T20:43:55;10.15;;;4.70;;
59207;SDS011;44977;53.132;6.408;2023-06-10T20:48:57;10.98;;;4.70;;
59207;SDS011;44977;53.132;6.408;2023-06-10T20:54:01;10.30;;;5.25;;
59207;SDS011;44977;53.132;6.408;2023-06-10T20:59:01;10.55;;;4.70;;
59207;SDS011;44977;53.132;6.408;2023-06-10T21:04:02;11.75;;;5.20;;
59207;SDS011;44977;53.132;6.408;2023-06-10T21:09:03;11.07;;;5.45;;
59207;SDS011;44977;53.132;6.408;2023-06-10T21:14:04;12.05;;;6.15;;
59207;SDS011;44977;53.132;6.408;2023-06-10T21:19:04;13.93;;;6.22;;
59207;SDS011;44977;53.132;6.408;2023-06-10T21:24:05;11.70;;;5.75;;
59207;SDS011;44977;53.132;6.408;2023-06-10T21:29:06;13.20;;;6.05;;
59207;SDS011;44977;53.132;6.408;2023-06-10T21:34:07;11.38;;;5.50;;
59207;SDS011;44977;53.132;6.408;2023-06-10T21:39:07;12.98;;;6.30;;
59207;SDS011;44977;53.132;6.408;2023-06-10T21:44:08;10.98;;;5.60;;
59207;SDS011;44977;53.132;6.408;2023-06-10T21:49:09;11.65;;;6.30;;
59207;SDS011;44977;53.132;6.408;2023-06-10T21:54:10;12.38;;;6.63;;
59207;SDS011;44977;53.132;6.408;2023-06-10T21:59:11;10.65;;;6.13;;
59207;SDS011;44977;53.132;6.408;2023-06-10T22:04:13;13.65;;;6.97;;
59207;SDS011;44977;53.132;6.408;2023-06-10T22:09:13;14.02;;;6.63;;
59207;SDS011;44977;53.132;6.408;2023-06-10T22:14:14;14.52;;;7.20;;
59207;SDS011;44977;53.132;6.408;2023-06-10T22:19:15;12.60;;;7.22;;
59207;SDS011;44977;53.132;6.408;2023-06-10T22:24:16;10.93;;;6.90;;
59207;SDS011;44977;53.132;6.408;2023-06-10T22:29:16;13.52;;;7.13;;
59207;SDS011;44977;53.132;6.408;2023-06-10T22:34:17;12.63;;;6.82;;
59207;SDS011;44977;53.132;6.408;2023-06-10T22:39:18;13.60;;;6.60;;
59207;SDS011;44977;53.132;6.408;2023-06-10T22:44:18;13.05;;;6.13;;
59207;SDS011;44977;53.132;6.408;2023-06-10T22:49:20;12.93;;;6.32;;
59207;SDS011;44977;53.132;6.408;2023-06-10T22:54:20;11.95;;;6.45;;
59207;SDS011;44977;53.132;6.408;2023-06-10T22:59:21;14.50;;;7.28;;
59207;SDS011;44977;53.132;6.408;2023-06-10T23:04:22;11.35;;;5.90;;
59207;SDS011;44977;53.132;6.408;2023-06-10T23:09:23;13.68;;;6.80;;
59207;SDS011;44977;53.132;6.408;2023-06-10T23:14:23;12.20;;;6.22;;
59207;SDS011;44977;53.132;6.408;2023-06-10T23:19:24;13.07;;;6.70;;
59207;SDS011;44977;53.132;6.408;2023-06-10T23:24:27;13.90;;;6.18;;
59207;SDS011;44977;53.132;6.408;2023-06-10T23:29:30;12.90;;;6.32;;
59207;SDS011;44977;53.132;6.408;2023-06-10T23:34:31;12.18;;;6.70;;
59207;SDS011;44977;53.132;6.408;2023-06-10T23:39:31;11.40;;;6.75;;
59207;SDS011;44977;53.132;6.408;2023-06-10T23:44:32;11.75;;;5.63;;
59207;SDS011;44977;53.132;6.408;2023-06-10T23:49:33;12.48;;;6.72;;
59207;SDS011;44977;53.132;6.408;2023-06-10T23:54:33;12.50;;;6.82;;
59207;SDS011;44977;53.132;6.408;2023-06-10T23:59:34;14.25;;;7.00;;
